sensor_id;sensor_type;location;lat;lon;timestamp;P1;durP1;ratioP1;P2;durP2;ratioP2
64674;SDS011;51090;51.512;11.332;2023-03-01T00:01:38;12.32;;;5.32;;
64674;SDS011;51090;51.512;11.332;2023-03-01T00:04:04;12.75;;;6.00;;
64674;SDS011;51090;51.512;11.332;2023-03-01T00:06:30;16.38;;;6.28;;
64674;SDS011;51090;51.512;11.332;2023-03-01T00:08:56;12.55;;;5.43;;
64674;SDS011;51090;51.512;11.332;2023-03-01T00:11:26;8.43;;;5.00;;
64674;SDS011;51090;51.512;11.332;2023-03-01T00:13:55;12.95;;;6.75;;
64674;SDS011;51090;51.512;11.332;2023-03-01T00:16:24;15.65;;;6.90;;
64674;SDS011;51090;51.512;11.332;2023-03-01T00:18:56;12.32;;;6.10;;
64674;SDS011;51090;51.512;11.332;2023-03-01T00:21:23;14.85;;;5.03;;
64674;SDS011;51090;51.512;11.332;2023-03-01T00:23:50;15.57;;;6.32;;
64674;SDS011;51090;51.512;11.332;2023-03-01T00:26:17;13.40;;;5.22;;
64674;SDS011;51090;51.512;11.332;2023-03-01T00:28:45;14.18;;;5.50;;
64674;SDS011;51090;51.512;11.332;2023-03-01T00:31:12;16.63;;;6.47;;
64674;SDS011;51090;51.512;11.332;2023-03-01T00:33:42;12.52;;;5.18;;
64674;SDS011;51090;51.512;11.332;2023-03-01T00:36:09;14.82;;;6.10;;
64674;SDS011;51090;51.512;11.332;2023-03-01T00:38:37;12.60;;;5.43;;
64674;SDS011;51090;51.512;11.332;2023-03-01T00:41:05;9.73;;;4.57;;
64674;SDS011;51090;51.512;11.332;2023-03-01T00:43:34;12.43;;;5.57;;
64674;SDS011;51090;51.512;11.332;2023-03-01T00:46:05;16.52;;;5.85;;
64674;SDS011;51090;51.512;11.332;2023-03-01T00:48:39;12.38;;;5.65;;
64674;SDS011;51090;51.512;11.332;2023-03-01T00:51:10;10.82;;;4.50;;
64674;SDS011;51090;51.512;11.332;2023-03-01T00:56:21;15.73;;;5.38;;
64674;SDS011;51090;51.512;11.332;2023-03-01T00:58:48;14.75;;;5.38;;
64674;SDS011;51090;51.512;11.332;2023-03-01T01:01:15;10.68;;;5.30;;
64674;SDS011;51090;51.512;11.332;2023-03-01T01:03:48;9.95;;;4.97;;
64674;SDS011;51090;51.512;11.332;2023-03-01T01:06:36;12.02;;;5.07;;
64674;SDS011;51090;51.512;11.332;2023-03-01T01:09:07;10.82;;;4.60;;
64674;SDS011;51090;51.512;11.332;2023-03-01T01:11:41;9.65;;;4.20;;
64674;SDS011;51090;51.512;11.332;2023-03-01T01:14:11;11.18;;;4.50;;
64674;SDS011;51090;51.512;11.332;2023-03-01T01:16:38;10.57;;;4.88;;
64674;SDS011;51090;51.512;11.332;2023-03-01T01:19:04;12.23;;;5.30;;
64674;SDS011;51090;51.512;11.332;2023-03-01T01:21:30;12.55;;;5.40;;
64674;SDS011;51090;51.512;11.332;2023-03-01T01:23:56;12.02;;;4.32;;
64674;SDS011;51090;51.512;11.332;2023-03-01T01:26:23;14.40;;;5.80;;
64674;SDS011;51090;51.512;11.332;2023-03-01T01:28:52;12.65;;;4.53;;
64674;SDS011;51090;51.512;11.332;2023-03-01T01:31:19;12.60;;;5.18;;
64674;SDS011;51090;51.512;11.332;2023-03-01T01:33:48;12.90;;;5.55;;
64674;SDS011;51090;51.512;11.332;2023-03-01T01:36:15;11.10;;;5.80;;
64674;SDS011;51090;51.512;11.332;2023-03-01T01:38:41;12.88;;;5.40;;
64674;SDS011;51090;51.512;11.332;2023-03-01T01:41:08;14.68;;;5.50;;
64674;SDS011;51090;51.512;11.332;2023-03-01T01:43:50;14.18;;;6.45;;
64674;SDS011;51090;51.512;11.332;2023-03-01T01:49:38;11.82;;;4.50;;
64674;SDS011;51090;51.512;11.332;2023-03-01T01:52:23;16.42;;;5.57;;
64674;SDS011;51090;51.512;11.332;2023-03-01T01:57:53;13.85;;;5.10;;
64674;SDS011;51090;51.512;11.332;2023-03-01T02:00:26;11.23;;;4.82;;
64674;SDS011;51090;51.512;11.332;2023-03-01T02:03:01;16.17;;;5.43;;
64674;SDS011;51090;51.512;11.332;2023-03-01T02:08:23;12.35;;;4.82;;
64674;SDS011;51090;51.512;11.332;2023-03-01T02:10:55;11.88;;;4.63;;
64674;SDS011;51090;51.512;11.332;2023-03-01T02:13:22;12.95;;;5.82;;
64674;SDS011;51090;51.512;11.332;2023-03-01T02:15:48;13.15;;;5.05;;
64674;SDS011;51090;51.512;11.332;2023-03-01T02:18:15;10.77;;;4.57;;
64674;SDS011;51090;51.512;11.332;2023-03-01T02:20:50;15.15;;;5.45;;
64674;SDS011;51090;51.512;11.332;2023-03-01T02:23:46;10.30;;;4.07;;
64674;SDS011;51090;51.512;11.332;2023-03-01T02:26:23;15.60;;;4.50;;
64674;SDS011;51090;51.512;11.332;2023-03-01T02:29:11;22.05;;;6.78;;
64674;SDS011;51090;51.512;11.332;2023-03-01T02:31:37;19.83;;;5.63;;
64674;SDS011;51090;51.512;11.332;2023-03-01T02:34:13;14.13;;;5.40;;
64674;SDS011;51090;51.512;11.332;2023-03-01T02:36:47;9.80;;;4.63;;
64674;SDS011;51090;51.512;11.332;2023-03-01T02:39:26;11.95;;;4.88;;
64674;SDS011;51090;51.512;11.332;2023-03-01T02:41:57;11.52;;;4.88;;
64674;SDS011;51090;51.512;11.332;2023-03-01T02:44:25;11.95;;;4.30;;
64674;SDS011;51090;51.512;11.332;2023-03-01T02:46:51;9.88;;;4.78;;
64674;SDS011;51090;51.512;11.332;2023-03-01T02:49:27;9.60;;;4.18;;
64674;SDS011;51090;51.512;11.332;2023-03-01T02:54:50;14.18;;;4.40;;
64674;SDS011;51090;51.512;11.332;2023-03-01T02:57:35;11.85;;;4.53;;
64674;SDS011;51090;51.512;11.332;2023-03-01T03:00:07;10.73;;;4.15;;
64674;SDS011;51090;51.512;11.332;2023-03-01T03:02:46;8.70;;;3.95;;
64674;SDS011;51090;51.512;11.332;2023-03-01T03:05:15;11.30;;;4.45;;
64674;SDS011;51090;51.512;11.332;2023-03-01T03:07:45;9.65;;;4.18;;
64674;SDS011;51090;51.512;11.332;2023-03-01T03:10:14;9.25;;;3.75;;
64674;SDS011;51090;51.512;11.332;2023-03-01T03:12:44;10.38;;;4.30;;
64674;SDS011;51090;51.512;11.332;2023-03-01T03:15:28;17.70;;;5.00;;
64674;SDS011;51090;51.512;11.332;2023-03-01T03:17:55;10.77;;;4.28;;
64674;SDS011;51090;51.512;11.332;2023-03-01T03:20:23;11.73;;;4.38;;
64674;SDS011;51090;51.512;11.332;2023-03-01T03:22:52;9.65;;;4.88;;
64674;SDS011;51090;51.512;11.332;2023-03-01T03:25:20;10.32;;;4.90;;
64674;SDS011;51090;51.512;11.332;2023-03-01T03:27:48;10.73;;;4.18;;
64674;SDS011;51090;51.512;11.332;2023-03-01T03:30:21;12.23;;;4.75;;
64674;SDS011;51090;51.512;11.332;2023-03-01T03:32:52;10.30;;;3.95;;
64674;SDS011;51090;51.512;11.332;2023-03-01T03:35:23;9.63;;;3.80;;
64674;SDS011;51090;51.512;11.332;2023-03-01T03:38:03;9.35;;;4.15;;
64674;SDS011;51090;51.512;11.332;2023-03-01T03:40:38;10.73;;;4.38;;
64674;SDS011;51090;51.512;11.332;2023-03-01T03:43:15;8.27;;;3.92;;
64674;SDS011;51090;51.512;11.332;2023-03-01T03:45:45;7.05;;;3.70;;
64674;SDS011;51090;51.512;11.332;2023-03-01T03:48:12;9.43;;;4.28;;
64674;SDS011;51090;51.512;11.332;2023-03-01T03:50:38;9.90;;;3.97;;
64674;SDS011;51090;51.512;11.332;2023-03-01T03:53:06;8.95;;;4.05;;
64674;SDS011;51090;51.512;11.332;2023-03-01T03:55:35;10.25;;;3.55;;
64674;SDS011;51090;51.512;11.332;2023-03-01T03:58:04;10.57;;;3.65;;
64674;SDS011;51090;51.512;11.332;2023-03-01T04:00:33;7.35;;;3.38;;
64674;SDS011;51090;51.512;11.332;2023-03-01T04:03:01;9.93;;;4.15;;
64674;SDS011;51090;51.512;11.332;2023-03-01T04:05:27;9.60;;;3.90;;
64674;SDS011;51090;51.512;11.332;2023-03-01T04:07:54;13.57;;;4.97;;
64674;SDS011;51090;51.512;11.332;2023-03-01T04:10:33;10.48;;;4.07;;
64674;SDS011;51090;51.512;11.332;2023-03-01T04:13:05;10.98;;;4.93;;
64674;SDS011;51090;51.512;11.332;2023-03-01T04:15:34;13.10;;;4.90;;
64674;SDS011;51090;51.512;11.332;2023-03-01T04:18:01;12.30;;;4.90;;
64674;SDS011;51090;51.512;11.332;2023-03-01T04:20:29;17.00;;;5.90;;
64674;SDS011;51090;51.512;11.332;2023-03-01T04:23:01;10.53;;;4.13;;
64674;SDS011;51090;51.512;11.332;2023-03-01T04:25:38;12.55;;;5.50;;
64674;SDS011;51090;51.512;11.332;2023-03-01T04:28:05;14.48;;;6.30;;
64674;SDS011;51090;51.512;11.332;2023-03-01T04:30:31;12.38;;;6.00;;
64674;SDS011;51090;51.512;11.332;2023-03-01T04:33:07;13.68;;;5.03;;
64674;SDS011;51090;51.512;11.332;2023-03-01T04:35:35;12.35;;;4.75;;
64674;SDS011;51090;51.512;11.332;2023-03-01T04:38:03;13.65;;;5.50;;
64674;SDS011;51090;51.512;11.332;2023-03-01T04:40:30;10.20;;;4.53;;
64674;SDS011;51090;51.512;11.332;2023-03-01T04:42:56;10.82;;;5.07;;
64674;SDS011;51090;51.512;11.332;2023-03-01T04:45:22;11.38;;;4.28;;
64674;SDS011;51090;51.512;11.332;2023-03-01T04:47:48;11.40;;;4.78;;
64674;SDS011;51090;51.512;11.332;2023-03-01T04:50:15;7.38;;;4.35;;
64674;SDS011;51090;51.512;11.332;2023-03-01T04:52:42;9.20;;;4.68;;
64674;SDS011;51090;51.512;11.332;2023-03-01T04:55:09;12.27;;;5.60;;
64674;SDS011;51090;51.512;11.332;2023-03-01T04:57:35;9.30;;;4.38;;
64674;SDS011;51090;51.512;11.332;2023-03-01T05:00:02;11.93;;;5.60;;
64674;SDS011;51090;51.512;11.332;2023-03-01T05:02:45;14.20;;;5.10;;
64674;SDS011;51090;51.512;11.332;2023-03-01T05:05:12;11.65;;;4.97;;
64674;SDS011;51090;51.512;11.332;2023-03-01T05:07:38;12.35;;;4.70;;
64674;SDS011;51090;51.512;11.332;2023-03-01T05:10:04;8.55;;;4.85;;
64674;SDS011;51090;51.512;11.332;2023-03-01T05:12:30;12.95;;;4.97;;
64674;SDS011;51090;51.512;11.332;2023-03-01T05:14:56;12.45;;;4.60;;
64674;SDS011;51090;51.512;11.332;2023-03-01T05:17:23;10.13;;;4.22;;
64674;SDS011;51090;51.512;11.332;2023-03-01T05:19:49;10.05;;;5.18;;
64674;SDS011;51090;51.512;11.332;2023-03-01T05:22:15;13.23;;;5.65;;
64674;SDS011;51090;51.512;11.332;2023-03-01T05:24:41;13.52;;;5.32;;
64674;SDS011;51090;51.512;11.332;2023-03-01T05:27:07;11.02;;;4.63;;
64674;SDS011;51090;51.512;11.332;2023-03-01T05:29:33;11.18;;;5.05;;
64674;SDS011;51090;51.512;11.332;2023-03-01T05:32:00;12.90;;;5.60;;
64674;SDS011;51090;51.512;11.332;2023-03-01T05:34:28;13.95;;;5.90;;
64674;SDS011;51090;51.512;11.332;2023-03-01T05:37:00;11.57;;;4.75;;
64674;SDS011;51090;51.512;11.332;2023-03-01T05:39:27;11.30;;;5.57;;
64674;SDS011;51090;51.512;11.332;2023-03-01T05:41:55;12.88;;;5.55;;
64674;SDS011;51090;51.512;11.332;2023-03-01T05:44:24;9.20;;;4.07;;
64674;SDS011;51090;51.512;11.332;2023-03-01T05:46:51;16.42;;;6.95;;
64674;SDS011;51090;51.512;11.332;2023-03-01T05:49:17;14.10;;;6.13;;
64674;SDS011;51090;51.512;11.332;2023-03-01T05:51:45;14.48;;;6.63;;
64674;SDS011;51090;51.512;11.332;2023-03-01T05:54:18;13.70;;;6.25;;
64674;SDS011;51090;51.512;11.332;2023-03-01T05:56:46;14.98;;;6.63;;
64674;SDS011;51090;51.512;11.332;2023-03-01T05:59:12;16.58;;;6.82;;
64674;SDS011;51090;51.512;11.332;2023-03-01T06:01:38;15.43;;;6.65;;
64674;SDS011;51090;51.512;11.332;2023-03-01T06:04:05;14.48;;;6.15;;
64674;SDS011;51090;51.512;11.332;2023-03-01T06:06:34;16.20;;;8.98;;
64674;SDS011;51090;51.512;11.332;2023-03-01T06:09:04;14.50;;;5.78;;
64674;SDS011;51090;51.512;11.332;2023-03-01T06:11:33;14.18;;;6.32;;
64674;SDS011;51090;51.512;11.332;2023-03-01T06:14:00;14.07;;;6.60;;
64674;SDS011;51090;51.512;11.332;2023-03-01T06:16:26;16.48;;;7.70;;
64674;SDS011;51090;51.512;11.332;2023-03-01T06:18:52;16.95;;;6.50;;
64674;SDS011;51090;51.512;11.332;2023-03-01T06:21:18;15.50;;;6.20;;
64674;SDS011;51090;51.512;11.332;2023-03-01T06:23:44;17.50;;;7.20;;
64674;SDS011;51090;51.512;11.332;2023-03-01T06:26:10;18.73;;;7.60;;
64674;SDS011;51090;51.512;11.332;2023-03-01T06:28:36;16.25;;;5.82;;
64674;SDS011;51090;51.512;11.332;2023-03-01T06:31:02;14.60;;;6.95;;
64674;SDS011;51090;51.512;11.332;2023-03-01T06:33:28;13.57;;;6.93;;
64674;SDS011;51090;51.512;11.332;2023-03-01T06:35:54;14.95;;;7.00;;
64674;SDS011;51090;51.512;11.332;2023-03-01T06:38:21;15.20;;;7.55;;
64674;SDS011;51090;51.512;11.332;2023-03-01T06:40:52;16.65;;;7.28;;
64674;SDS011;51090;51.512;11.332;2023-03-01T06:43:19;22.52;;;8.77;;
64674;SDS011;51090;51.512;11.332;2023-03-01T06:45:46;13.43;;;6.47;;
64674;SDS011;51090;51.512;11.332;2023-03-01T06:48:12;17.77;;;7.68;;
64674;SDS011;51090;51.512;11.332;2023-03-01T06:50:38;16.70;;;8.02;;
64674;SDS011;51090;51.512;11.332;2023-03-01T06:53:03;19.38;;;8.05;;
64674;SDS011;51090;51.512;11.332;2023-03-01T06:55:29;19.65;;;7.32;;
64674;SDS011;51090;51.512;11.332;2023-03-01T06:57:56;23.65;;;9.55;;
64674;SDS011;51090;51.512;11.332;2023-03-01T07:00:24;14.85;;;7.22;;
64674;SDS011;51090;51.512;11.332;2023-03-01T07:02:50;17.75;;;6.47;;
64674;SDS011;51090;51.512;11.332;2023-03-01T07:05:16;19.92;;;8.02;;
64674;SDS011;51090;51.512;11.332;2023-03-01T07:07:42;17.48;;;6.65;;
64674;SDS011;51090;51.512;11.332;2023-03-01T07:10:08;14.55;;;7.13;;
64674;SDS011;51090;51.512;11.332;2023-03-01T07:12:35;15.43;;;6.93;;
64674;SDS011;51090;51.512;11.332;2023-03-01T07:15:01;16.92;;;6.43;;
64674;SDS011;51090;51.512;11.332;2023-03-01T07:17:28;14.75;;;7.05;;
64674;SDS011;51090;51.512;11.332;2023-03-01T07:19:54;16.77;;;6.25;;
64674;SDS011;51090;51.512;11.332;2023-03-01T07:22:20;14.93;;;7.18;;
64674;SDS011;51090;51.512;11.332;2023-03-01T07:24:46;15.25;;;6.47;;
64674;SDS011;51090;51.512;11.332;2023-03-01T07:27:12;16.42;;;7.05;;
64674;SDS011;51090;51.512;11.332;2023-03-01T07:29:38;15.10;;;6.72;;
64674;SDS011;51090;51.512;11.332;2023-03-01T07:32:04;14.57;;;6.60;;
64674;SDS011;51090;51.512;11.332;2023-03-01T07:34:30;15.93;;;6.65;;
64674;SDS011;51090;51.512;11.332;2023-03-01T07:36:57;17.20;;;6.72;;
64674;SDS011;51090;51.512;11.332;2023-03-01T07:39:22;15.15;;;6.85;;
64674;SDS011;51090;51.512;11.332;2023-03-01T07:41:49;11.90;;;5.28;;
64674;SDS011;51090;51.512;11.332;2023-03-01T07:44:15;14.57;;;6.38;;
64674;SDS011;51090;51.512;11.332;2023-03-01T07:46:42;11.68;;;5.57;;
64674;SDS011;51090;51.512;11.332;2023-03-01T07:49:08;15.68;;;7.05;;
64674;SDS011;51090;51.512;11.332;2023-03-01T07:51:34;13.02;;;6.82;;
64674;SDS011;51090;51.512;11.332;2023-03-01T07:54:00;13.88;;;5.40;;
64674;SDS011;51090;51.512;11.332;2023-03-01T07:56:26;15.85;;;6.90;;
64674;SDS011;51090;51.512;11.332;2023-03-01T07:58:51;11.60;;;5.70;;
64674;SDS011;51090;51.512;11.332;2023-03-01T08:01:18;11.90;;;5.60;;
64674;SDS011;51090;51.512;11.332;2023-03-01T08:03:45;17.45;;;6.65;;
64674;SDS011;51090;51.512;11.332;2023-03-01T08:06:12;12.23;;;5.63;;
64674;SDS011;51090;51.512;11.332;2023-03-01T08:08:41;14.80;;;6.28;;
64674;SDS011;51090;51.512;11.332;2023-03-01T08:11:07;13.75;;;5.75;;
64674;SDS011;51090;51.512;11.332;2023-03-01T08:13:36;13.93;;;6.43;;
64674;SDS011;51090;51.512;11.332;2023-03-01T08:16:06;11.45;;;5.10;;
64674;SDS011;51090;51.512;11.332;2023-03-01T08:18:36;15.15;;;6.22;;
64674;SDS011;51090;51.512;11.332;2023-03-01T08:21:03;14.70;;;6.13;;
64674;SDS011;51090;51.512;11.332;2023-03-01T08:23:30;14.00;;;5.80;;
64674;SDS011;51090;51.512;11.332;2023-03-01T08:26:06;10.27;;;5.30;;
64674;SDS011;51090;51.512;11.332;2023-03-01T08:28:33;12.32;;;5.68;;
64674;SDS011;51090;51.512;11.332;2023-03-01T08:31:00;13.32;;;5.47;;
64674;SDS011;51090;51.512;11.332;2023-03-01T08:33:26;12.10;;;5.65;;
64674;SDS011;51090;51.512;11.332;2023-03-01T08:35:52;11.18;;;5.57;;
64674;SDS011;51090;51.512;11.332;2023-03-01T08:38:17;9.93;;;5.32;;
64674;SDS011;51090;51.512;11.332;2023-03-01T08:40:43;11.65;;;5.13;;
64674;SDS011;51090;51.512;11.332;2023-03-01T08:43:08;10.02;;;4.70;;
64674;SDS011;51090;51.512;11.332;2023-03-01T08:45:34;13.27;;;5.78;;
64674;SDS011;51090;51.512;11.332;2023-03-01T08:48:00;16.23;;;6.60;;
64674;SDS011;51090;51.512;11.332;2023-03-01T08:50:26;12.20;;;5.63;;
64674;SDS011;51090;51.512;11.332;2023-03-01T08:52:52;14.82;;;6.07;;
64674;SDS011;51090;51.512;11.332;2023-03-01T08:55:18;14.82;;;6.47;;
64674;SDS011;51090;51.512;11.332;2023-03-01T08:57:44;12.65;;;5.57;;
64674;SDS011;51090;51.512;11.332;2023-03-01T09:00:10;15.35;;;5.55;;
64674;SDS011;51090;51.512;11.332;2023-03-01T09:02:36;12.13;;;5.47;;
64674;SDS011;51090;51.512;11.332;2023-03-01T09:05:02;12.40;;;5.40;;
64674;SDS011;51090;51.512;11.332;2023-03-01T09:07:28;13.93;;;5.30;;
64674;SDS011;51090;51.512;11.332;2023-03-01T09:09:54;12.77;;;5.75;;
64674;SDS011;51090;51.512;11.332;2023-03-01T09:12:20;15.63;;;6.35;;
64674;SDS011;51090;51.512;11.332;2023-03-01T09:14:46;13.15;;;5.72;;
64674;SDS011;51090;51.512;11.332;2023-03-01T09:17:11;12.20;;;5.32;;
64674;SDS011;51090;51.512;11.332;2023-03-01T09:19:37;13.02;;;5.75;;
64674;SDS011;51090;51.512;11.332;2023-03-01T09:22:03;15.75;;;6.78;;
64674;SDS011;51090;51.512;11.332;2023-03-01T09:24:29;12.10;;;5.90;;
64674;SDS011;51090;51.512;11.332;2023-03-01T09:26:55;17.52;;;6.78;;
64674;SDS011;51090;51.512;11.332;2023-03-01T09:29:21;12.95;;;6.22;;
64674;SDS011;51090;51.512;11.332;2023-03-01T09:31:48;17.73;;;6.53;;
64674;SDS011;51090;51.512;11.332;2023-03-01T09:34:14;11.55;;;5.65;;
64674;SDS011;51090;51.512;11.332;2023-03-01T09:36:47;12.93;;;5.20;;
64674;SDS011;51090;51.512;11.332;2023-03-01T09:39:14;13.05;;;5.60;;
64674;SDS011;51090;51.512;11.332;2023-03-01T09:47:05;12.98;;;5.65;;
64674;SDS011;51090;51.512;11.332;2023-03-01T09:49:54;12.13;;;5.10;;
64674;SDS011;51090;51.512;11.332;2023-03-01T09:52:46;12.83;;;5.20;;
64674;SDS011;51090;51.512;11.332;2023-03-01T09:55:20;15.57;;;5.03;;
64674;SDS011;51090;51.512;11.332;2023-03-01T09:58:23;14.38;;;6.18;;
64674;SDS011;51090;51.512;11.332;2023-03-01T10:01:25;13.02;;;6.43;;
64674;SDS011;51090;51.512;11.332;2023-03-01T10:04:20;13.80;;;5.47;;
64674;SDS011;51090;51.512;11.332;2023-03-01T10:09:43;14.23;;;5.63;;
64674;SDS011;51090;51.512;11.332;2023-03-01T10:12:11;14.30;;;5.35;;
64674;SDS011;51090;51.512;11.332;2023-03-01T10:17:42;9.27;;;4.97;;
64674;SDS011;51090;51.512;11.332;2023-03-01T10:20:31;14.82;;;5.70;;
64674;SDS011;51090;51.512;11.332;2023-03-01T10:23:14;14.63;;;5.93;;
64674;SDS011;51090;51.512;11.332;2023-03-01T10:28:31;17.25;;;6.13;;
64674;SDS011;51090;51.512;11.332;2023-03-01T10:33:52;14.27;;;5.78;;
64674;SDS011;51090;51.512;11.332;2023-03-01T10:36:20;14.00;;;5.85;;
64674;SDS011;51090;51.512;11.332;2023-03-01T10:38:51;13.75;;;6.75;;
64674;SDS011;51090;51.512;11.332;2023-03-01T10:41:23;14.32;;;6.18;;
64674;SDS011;51090;51.512;11.332;2023-03-01T10:43:57;13.75;;;6.13;;
64674;SDS011;51090;51.512;11.332;2023-03-01T10:46:35;14.15;;;5.88;;
64674;SDS011;51090;51.512;11.332;2023-03-01T10:49:21;14.30;;;6.55;;
64674;SDS011;51090;51.512;11.332;2023-03-01T10:51:50;16.60;;;6.60;;
64674;SDS011;51090;51.512;11.332;2023-03-01T10:54:28;12.15;;;6.05;;
64674;SDS011;51090;51.512;11.332;2023-03-01T10:56:57;12.98;;;6.15;;
64674;SDS011;51090;51.512;11.332;2023-03-01T10:59:36;14.15;;;7.38;;
64674;SDS011;51090;51.512;11.332;2023-03-01T11:02:24;17.02;;;7.28;;
64674;SDS011;51090;51.512;11.332;2023-03-01T11:04:56;12.13;;;5.93;;
64674;SDS011;51090;51.512;11.332;2023-03-01T11:07:49;13.98;;;7.00;;
64674;SDS011;51090;51.512;11.332;2023-03-01T11:13:14;15.43;;;6.65;;
64674;SDS011;51090;51.512;11.332;2023-03-01T11:15:43;15.98;;;6.80;;
64674;SDS011;51090;51.512;11.332;2023-03-01T11:18:32;15.70;;;6.90;;
64674;SDS011;51090;51.512;11.332;2023-03-01T11:20:58;15.77;;;7.07;;
64674;SDS011;51090;51.512;11.332;2023-03-01T11:23:27;12.98;;;6.40;;
64674;SDS011;51090;51.512;11.332;2023-03-01T11:25:55;13.10;;;6.53;;
64674;SDS011;51090;51.512;11.332;2023-03-01T11:28:30;11.80;;;5.75;;
64674;SDS011;51090;51.512;11.332;2023-03-01T11:31:07;12.10;;;6.13;;
64674;SDS011;51090;51.512;11.332;2023-03-01T11:33:54;10.98;;;5.47;;
64674;SDS011;51090;51.512;11.332;2023-03-01T11:36:35;11.68;;;6.05;;
64674;SDS011;51090;51.512;11.332;2023-03-01T11:39:37;12.43;;;6.05;;
64674;SDS011;51090;51.512;11.332;2023-03-01T11:42:19;13.48;;;5.57;;
64674;SDS011;51090;51.512;11.332;2023-03-01T11:45:11;15.27;;;7.68;;
64674;SDS011;51090;51.512;11.332;2023-03-01T11:50:39;12.10;;;6.07;;
64674;SDS011;51090;51.512;11.332;2023-03-01T11:56:22;13.80;;;6.80;;
64674;SDS011;51090;51.512;11.332;2023-03-01T11:59:09;13.38;;;7.38;;
64674;SDS011;51090;51.512;11.332;2023-03-01T12:11:03;12.13;;;5.82;;
64674;SDS011;51090;51.512;11.332;2023-03-01T12:14:13;12.20;;;5.28;;
64674;SDS011;51090;51.512;11.332;2023-03-01T12:17:05;13.68;;;5.95;;
64674;SDS011;51090;51.512;11.332;2023-03-01T12:20:08;13.77;;;5.15;;
64674;SDS011;51090;51.512;11.332;2023-03-01T12:23:03;10.20;;;4.47;;
64674;SDS011;51090;51.512;11.332;2023-03-01T12:35:02;7.22;;;3.88;;
64674;SDS011;51090;51.512;11.332;2023-03-01T12:37:38;9.77;;;4.47;;
64674;SDS011;51090;51.512;11.332;2023-03-01T12:51:42;10.15;;;4.97;;
64674;SDS011;51090;51.512;11.332;2023-03-01T12:54:20;14.27;;;5.18;;
64674;SDS011;51090;51.512;11.332;2023-03-01T12:56:53;11.63;;;4.95;;
64674;SDS011;51090;51.512;11.332;2023-03-01T12:59:25;13.07;;;5.57;;
64674;SDS011;51090;51.512;11.332;2023-03-01T13:02:33;9.80;;;5.30;;
64674;SDS011;51090;51.512;11.332;2023-03-01T13:05:26;10.77;;;5.40;;
64674;SDS011;51090;51.512;11.332;2023-03-01T13:11:01;8.77;;;4.35;;
64674;SDS011;51090;51.512;11.332;2023-03-01T13:13:30;11.75;;;4.85;;
64674;SDS011;51090;51.512;11.332;2023-03-01T13:15:57;9.80;;;4.57;;
64674;SDS011;51090;51.512;11.332;2023-03-01T13:18:42;14.50;;;6.05;;
64674;SDS011;51090;51.512;11.332;2023-03-01T13:21:08;10.27;;;4.72;;
64674;SDS011;51090;51.512;11.332;2023-03-01T13:23:35;11.77;;;5.30;;
64674;SDS011;51090;51.512;11.332;2023-03-01T13:33:55;11.82;;;4.97;;
64674;SDS011;51090;51.512;11.332;2023-03-01T13:49:42;6.05;;;2.95;;
64674;SDS011;51090;51.512;11.332;2023-03-01T13:57:49;8.95;;;3.67;;
64674;SDS011;51090;51.512;11.332;2023-03-01T14:05:42;8.30;;;3.40;;
64674;SDS011;51090;51.512;11.332;2023-03-01T14:08:28;8.80;;;3.75;;
64674;SDS011;51090;51.512;11.332;2023-03-01T14:19:59;9.30;;;3.22;;
64674;SDS011;51090;51.512;11.332;2023-03-01T14:22:35;5.40;;;2.70;;
64674;SDS011;51090;51.512;11.332;2023-03-01T14:25:03;7.03;;;2.90;;
64674;SDS011;51090;51.512;11.332;2023-03-01T14:27:44;6.20;;;2.85;;
64674;SDS011;51090;51.512;11.332;2023-03-01T14:30:18;6.32;;;2.72;;
64674;SDS011;51090;51.512;11.332;2023-03-01T14:32:54;8.25;;;3.58;;
64674;SDS011;51090;51.512;11.332;2023-03-01T14:35:29;8.70;;;3.15;;
64674;SDS011;51090;51.512;11.332;2023-03-01T14:37:59;5.97;;;2.55;;
64674;SDS011;51090;51.512;11.332;2023-03-01T14:40:26;7.80;;;3.00;;
64674;SDS011;51090;51.512;11.332;2023-03-01T14:43:04;5.82;;;2.95;;
64674;SDS011;51090;51.512;11.332;2023-03-01T14:45:36;10.38;;;4.05;;
64674;SDS011;51090;51.512;11.332;2023-03-01T14:48:03;9.20;;;4.00;;
64674;SDS011;51090;51.512;11.332;2023-03-01T14:50:32;11.57;;;4.53;;
64674;SDS011;51090;51.512;11.332;2023-03-01T14:53:05;7.85;;;4.07;;
64674;SDS011;51090;51.512;11.332;2023-03-01T14:55:34;14.73;;;4.57;;
64674;SDS011;51090;51.512;11.332;2023-03-01T14:58:03;10.60;;;4.38;;
64674;SDS011;51090;51.512;11.332;2023-03-01T15:00:31;10.88;;;4.32;;
64674;SDS011;51090;51.512;11.332;2023-03-01T15:03:05;6.72;;;3.30;;
64674;SDS011;51090;51.512;11.332;2023-03-01T15:06:14;8.52;;;4.15;;
64674;SDS011;51090;51.512;11.332;2023-03-01T15:08:47;10.27;;;3.90;;
64674;SDS011;51090;51.512;11.332;2023-03-01T15:11:19;8.85;;;4.15;;
64674;SDS011;51090;51.512;11.332;2023-03-01T15:13:54;8.70;;;3.60;;
64674;SDS011;51090;51.512;11.332;2023-03-01T15:16:27;8.18;;;3.92;;
64674;SDS011;51090;51.512;11.332;2023-03-01T15:19:03;9.60;;;3.92;;
64674;SDS011;51090;51.512;11.332;2023-03-01T15:21:35;9.43;;;4.00;;
64674;SDS011;51090;51.512;11.332;2023-03-01T15:24:05;9.65;;;3.92;;
64674;SDS011;51090;51.512;11.332;2023-03-01T15:26:44;9.43;;;3.72;;
64674;SDS011;51090;51.512;11.332;2023-03-01T15:29:21;7.43;;;3.67;;
64674;SDS011;51090;51.512;11.332;2023-03-01T15:31:56;8.93;;;3.60;;
64674;SDS011;51090;51.512;11.332;2023-03-01T15:34:47;10.85;;;3.47;;
64674;SDS011;51090;51.512;11.332;2023-03-01T15:40:19;7.57;;;3.00;;
64674;SDS011;51090;51.512;11.332;2023-03-01T15:42:57;8.68;;;3.72;;
64674;SDS011;51090;51.512;11.332;2023-03-01T15:45:29;9.70;;;4.05;;
64674;SDS011;51090;51.512;11.332;2023-03-01T15:48:00;10.27;;;4.43;;
64674;SDS011;51090;51.512;11.332;2023-03-01T15:50:40;10.02;;;4.05;;
64674;SDS011;51090;51.512;11.332;2023-03-01T15:53:10;8.02;;;3.28;;
64674;SDS011;51090;51.512;11.332;2023-03-01T15:55:39;6.68;;;3.15;;
64674;SDS011;51090;51.512;11.332;2023-03-01T16:00:39;7.43;;;3.20;;
64674;SDS011;51090;51.512;11.332;2023-03-01T16:03:05;10.05;;;3.10;;
64674;SDS011;51090;51.512;11.332;2023-03-01T16:05:32;8.85;;;3.50;;
64674;SDS011;51090;51.512;11.332;2023-03-01T16:08:01;7.70;;;3.40;;
64674;SDS011;51090;51.512;11.332;2023-03-01T16:10:28;6.55;;;3.00;;
64674;SDS011;51090;51.512;11.332;2023-03-01T16:12:54;7.50;;;2.97;;
64674;SDS011;51090;51.512;11.332;2023-03-01T16:15:24;7.85;;;3.20;;
64674;SDS011;51090;51.512;11.332;2023-03-01T16:18:02;6.78;;;2.97;;
64674;SDS011;51090;51.512;11.332;2023-03-01T16:20:28;6.20;;;2.38;;
64674;SDS011;51090;51.512;11.332;2023-03-01T16:22:55;8.15;;;3.00;;
64674;SDS011;51090;51.512;11.332;2023-03-01T16:25:28;7.43;;;2.67;;
64674;SDS011;51090;51.512;11.332;2023-03-01T16:27:55;5.82;;;2.85;;
64674;SDS011;51090;51.512;11.332;2023-03-01T16:30:23;6.15;;;2.30;;
64674;SDS011;51090;51.512;11.332;2023-03-01T16:32:49;9.43;;;2.83;;
64674;SDS011;51090;51.512;11.332;2023-03-01T16:35:17;7.72;;;2.80;;
64674;SDS011;51090;51.512;11.332;2023-03-01T16:37:45;6.30;;;2.42;;
64674;SDS011;51090;51.512;11.332;2023-03-01T16:40:19;7.43;;;2.75;;
64674;SDS011;51090;51.512;11.332;2023-03-01T16:42:51;6.00;;;2.63;;
64674;SDS011;51090;51.512;11.332;2023-03-01T16:45:20;6.38;;;2.80;;
64674;SDS011;51090;51.512;11.332;2023-03-01T16:47:46;8.23;;;2.95;;